sensor_id;sensor_type;location;lat;lon;timestamp;pressure;altitude;pressure_sealevel;temperature;humidity
73671;BME280;61968;48.178;11.566;2023-04-01T00:01:14;94553.38;;;5.58;46.75
73671;BME280;61968;48.178;11.566;2023-04-01T00:03:41;94555.78;;;5.36;47.02
73671;BME280;61968;48.178;11.566;2023-04-01T00:06:09;94549.66;;;5.78;45.86
73671;BME280;61968;48.178;11.566;2023-04-01T00:08:37;94548.41;;;5.80;46.09
73671;BME280;61968;48.178;11.566;2023-04-01T00:11:05;94548.16;;;5.70;46.10
73671;BME280;61968;48.178;11.566;2023-04-01T00:13:31;94542.22;;;5.51;46.88
73671;BME280;61968;48.178;11.566;2023-04-01T00:15:58;94549.41;;;5.56;47.09
73671;BME280;61968;48.178;11.566;2023-04-01T00:18:26;94534.50;;;5.68;46.63
73671;BME280;61968;48.178;11.566;2023-04-01T00:20:53;94530.34;;;5.37;46.98
73671;BME280;61968;48.178;11.566;2023-04-01T00:23:20;94527.41;;;5.57;46.32
73671;BME280;61968;48.178;11.566;2023-04-01T00:25:47;94528.22;;;5.69;46.01
73671;BME280;61968;48.178;11.566;2023-04-01T00:28:16;94531.28;;;5.54;46.88
73671;BME280;61968;48.178;11.566;2023-04-01T00:30:43;94526.56;;;5.92;45.90
73671;BME280;61968;48.178;11.566;2023-04-01T00:33:10;94521.44;;;6.09;45.00
73671;BME280;61968;48.178;11.566;2023-04-01T00:35:36;94530.16;;;5.74;45.83
73671;BME280;61968;48.178;11.566;2023-04-01T00:38:04;94523.41;;;5.90;45.62
73671;BME280;61968;48.178;11.566;2023-04-01T00:40:33;94532.19;;;5.83;45.36
73671;BME280;61968;48.178;11.566;2023-04-01T00:43:00;94532.53;;;5.87;45.63
73671;BME280;61968;48.178;11.566;2023-04-01T00:45:32;94528.78;;;5.71;45.83
73671;BME280;61968;48.178;11.566;2023-04-01T00:48:01;94515.66;;;5.48;46.74
73671;BME280;61968;48.178;11.566;2023-04-01T00:50:30;94530.25;;;5.67;46.40
73671;BME280;61968;48.178;11.566;2023-04-01T00:52:58;94526.69;;;5.97;45.27
73671;BME280;61968;48.178;11.566;2023-04-01T00:55:26;94529.25;;;5.68;46.31
73671;BME280;61968;48.178;11.566;2023-04-01T00:57:57;94524.47;;;5.77;45.83
73671;BME280;61968;48.178;11.566;2023-04-01T01:00:25;94534.50;;;5.68;45.69
73671;BME280;61968;48.178;11.566;2023-04-01T01:02:53;94524.09;;;5.85;45.60
73671;BME280;61968;48.178;11.566;2023-04-01T01:05:24;94521.44;;;6.09;45.40
73671;BME280;61968;48.178;11.566;2023-04-01T01:08:01;94524.25;;;6.31;44.77
73671;BME280;61968;48.178;11.566;2023-04-01T01:10:33;94524.50;;;6.17;44.96
73671;BME280;61968;48.178;11.566;2023-04-01T01:13:08;94528.53;;;5.84;45.51
73671;BME280;61968;48.178;11.566;2023-04-01T01:15:41;94525.34;;;5.71;45.78
73671;BME280;61968;48.178;11.566;2023-04-01T01:18:17;94529.00;;;5.81;45.85
73671;BME280;61968;48.178;11.566;2023-04-01T01:21:02;94537.63;;;6.05;45.50
73671;BME280;61968;48.178;11.566;2023-04-01T01:26:52;94532.19;;;5.60;47.24
73671;BME280;61968;48.178;11.566;2023-04-01T01:29:59;94527.06;;;5.42;47.59
73671;BME280;61968;48.178;11.566;2023-04-01T01:32:47;94523.53;;;5.59;47.04
73671;BME280;61968;48.178;11.566;2023-04-01T01:35:24;94522.84;;;5.52;47.13
73671;BME280;61968;48.178;11.566;2023-04-01T01:37:55;94511.09;;;5.43;47.49
73671;BME280;61968;48.178;11.566;2023-04-01T01:40:24;94512.13;;;5.42;47.29
73671;BME280;61968;48.178;11.566;2023-04-01T01:42:56;94513.84;;;5.72;46.46
73671;BME280;61968;48.178;11.566;2023-04-01T01:45:26;94518.16;;;5.31;47.20
73671;BME280;61968;48.178;11.566;2023-04-01T01:47:53;94516.25;;;5.38;47.23
73671;BME280;61968;48.178;11.566;2023-04-01T01:50:23;94509.84;;;5.69;46.22
73671;BME280;61968;48.178;11.566;2023-04-01T01:53:00;94515.78;;;5.53;46.92
73671;BME280;61968;48.178;11.566;2023-04-01T01:55:28;94504.84;;;5.32;47.19
73671;BME280;61968;48.178;11.566;2023-04-01T01:57:57;94514.50;;;5.55;46.47
73671;BME280;61968;48.178;11.566;2023-04-01T02:00:25;94517.47;;;5.71;46.18
73671;BME280;61968;48.178;11.566;2023-04-01T02:02:52;94512.34;;;5.64;46.56
73671;BME280;61968;48.178;11.566;2023-04-01T02:05:22;94516.47;;;5.83;45.55
73671;BME280;61968;48.178;11.566;2023-04-01T02:07:55;94522.00;;;6.11;44.86
73671;BME280;61968;48.178;11.566;2023-04-01T02:10:25;94525.38;;;5.59;45.84
73671;BME280;61968;48.178;11.566;2023-04-01T02:12:57;94521.13;;;5.70;45.72
73671;BME280;61968;48.178;11.566;2023-04-01T02:15:27;94522.00;;;6.22;44.74
73671;BME280;61968;48.178;11.566;2023-04-01T02:17:56;94524.06;;;5.97;44.41
73671;BME280;61968;48.178;11.566;2023-04-01T02:20:25;94523.16;;;5.79;45.35
73671;BME280;61968;48.178;11.566;2023-04-01T02:22:56;94526.56;;;5.92;44.75
73671;BME280;61968;48.178;11.566;2023-04-01T02:25:27;94531.41;;;5.59;45.31
73671;BME280;61968;48.178;11.566;2023-04-01T02:27:54;94528.06;;;5.17;46.84
73671;BME280;61968;48.178;11.566;2023-04-01T02:30:23;94531.75;;;5.51;46.07
73671;BME280;61968;48.178;11.566;2023-04-01T02:32:52;94521.13;;;5.46;46.02
73671;BME280;61968;48.178;11.566;2023-04-01T02:35:19;94541.44;;;5.51;45.64
73671;BME280;61968;48.178;11.566;2023-04-01T02:37:49;94532.97;;;5.96;44.88
73671;BME280;61968;48.178;11.566;2023-04-01T02:40:16;94533.97;;;6.30;44.04
73671;BME280;61968;48.178;11.566;2023-04-01T02:42:43;94541.84;;;6.06;44.71
73671;BME280;61968;48.178;11.566;2023-04-01T02:45:10;94541.91;;;5.83;44.84
73671;BME280;61968;48.178;11.566;2023-04-01T02:47:46;94535.28;;;5.80;45.26
73671;BME280;61968;48.178;11.566;2023-04-01T02:50:12;94532.97;;;5.96;44.80
73671;BME280;61968;48.178;11.566;2023-04-01T02:52:39;94528.78;;;5.71;45.40
73671;BME280;61968;48.178;11.566;2023-04-01T02:55:07;94536.25;;;6.15;44.46
73671;BME280;61968;48.178;11.566;2023-04-01T02:57:34;94544.41;;;5.90;44.86
73671;BME280;61968;48.178;11.566;2023-04-01T03:00:00;94547.03;;;5.90;44.85
73671;BME280;61968;48.178;11.566;2023-04-01T03:02:26;94546.44;;;5.64;45.55
73671;BME280;61968;48.178;11.566;2023-04-01T03:04:53;94550.44;;;5.67;45.35
73671;BME280;61968;48.178;11.566;2023-04-01T03:07:20;94550.22;;;5.68;45.42
73671;BME280;61968;48.178;11.566;2023-04-01T03:09:46;94539.38;;;5.65;45.42
73671;BME280;61968;48.178;11.566;2023-04-01T03:12:14;94544.19;;;5.56;45.57
73671;BME280;61968;48.178;11.566;2023-04-01T03:14:40;94544.84;;;5.75;45.39
73671;BME280;61968;48.178;11.566;2023-04-01T03:17:06;94555.34;;;5.63;45.47
73671;BME280;61968;48.178;11.566;2023-04-01T03:19:33;94550.09;;;5.87;44.87
73671;BME280;61968;48.178;11.566;2023-04-01T03:21:59;94548.84;;;5.89;44.89
73671;BME280;61968;48.178;11.566;2023-04-01T03:24:26;94548.94;;;5.82;45.01
73671;BME280;61968;48.178;11.566;2023-04-01T03:26:52;94543.59;;;5.66;45.16
73671;BME280;61968;48.178;11.566;2023-04-01T03:29:20;94548.69;;;5.37;45.76
73671;BME280;61968;48.178;11.566;2023-04-01T03:31:47;94558.88;;;5.45;45.59
73671;BME280;61968;48.178;11.566;2023-04-01T03:34:13;94546.75;;;5.21;46.34
73671;BME280;61968;48.178;11.566;2023-04-01T03:36:39;94553.94;;;5.37;46.19
73671;BME280;61968;48.178;11.566;2023-04-01T03:39:06;94553.97;;;5.49;45.65
73671;BME280;61968;48.178;11.566;2023-04-01T03:41:32;94550.75;;;6.05;44.50
73671;BME280;61968;48.178;11.566;2023-04-01T03:43:59;94565.00;;;5.98;44.16
73671;BME280;61968;48.178;11.566;2023-04-01T03:46:27;94570.34;;;5.32;45.77
73671;BME280;61968;48.178;11.566;2023-04-01T03:48:53;94569.00;;;5.89;44.86
73671;BME280;61968;48.178;11.566;2023-04-01T03:51:20;94564.78;;;5.29;45.80
73671;BME280;61968;48.178;11.566;2023-04-01T03:53:46;94566.66;;;5.10;46.38
73671;BME280;61968;48.178;11.566;2023-04-01T03:56:12;94566.88;;;5.62;45.19
73671;BME280;61968;48.178;11.566;2023-04-01T03:58:39;94575.50;;;6.10;44.07
73671;BME280;61968;48.178;11.566;2023-04-01T04:01:12;94574.84;;;6.26;43.75
73671;BME280;61968;48.178;11.566;2023-04-01T04:03:40;94570.63;;;5.90;44.34
73671;BME280;61968;48.178;11.566;2023-04-01T04:06:10;94576.78;;;5.06;46.65
73671;BME280;61968;48.178;11.566;2023-04-01T04:08:38;94581.44;;;5.34;46.08
73671;BME280;61968;48.178;11.566;2023-04-01T04:11:04;94579.25;;;5.43;45.88
73671;BME280;61968;48.178;11.566;2023-04-01T04:13:31;94573.47;;;5.41;46.14
73671;BME280;61968;48.178;11.566;2023-04-01T04:15:58;94575.84;;;5.43;46.25
73671;BME280;61968;48.178;11.566;2023-04-01T04:18:24;94573.38;;;5.71;45.23
73671;BME280;61968;48.178;11.566;2023-04-01T04:20:52;94570.81;;;5.29;46.17
73671;BME280;61968;48.178;11.566;2023-04-01T04:23:18;94578.03;;;5.69;45.66
73671;BME280;61968;48.178;11.566;2023-04-01T04:25:52;94575.41;;;5.93;45.00
73671;BME280;61968;48.178;11.566;2023-04-01T04:28:19;94564.09;;;6.04;45.07
73671;BME280;61968;48.178;11.566;2023-04-01T04:30:45;94579.50;;;5.53;46.21
73671;BME280;61968;48.178;11.566;2023-04-01T04:33:12;94574.38;;;5.82;45.83
73671;BME280;61968;48.178;11.566;2023-04-01T04:35:38;94573.13;;;6.08;44.92
73671;BME280;61968;48.178;11.566;2023-04-01T04:38:06;94589.66;;;6.09;44.71
73671;BME280;61968;48.178;11.566;2023-04-01T04:40:32;94597.19;;;6.05;44.96
73671;BME280;61968;48.178;11.566;2023-04-01T04:42:58;94593.41;;;6.24;44.42
73671;BME280;61968;48.178;11.566;2023-04-01T04:45:25;94588.41;;;5.88;45.31
73671;BME280;61968;48.178;11.566;2023-04-01T04:47:51;94592.28;;;6.20;44.68
73671;BME280;61968;48.178;11.566;2023-04-01T04:50:18;94589.00;;;5.78;45.79
73671;BME280;61968;48.178;11.566;2023-04-01T04:52:44;94592.03;;;6.22;44.57
73671;BME280;61968;48.178;11.566;2023-04-01T04:55:12;94601.28;;;6.13;44.79
73671;BME280;61968;48.178;11.566;2023-04-01T04:57:40;94593.41;;;6.24;44.41
73671;BME280;61968;48.178;11.566;2023-04-01T05:00:08;94602.00;;;5.96;45.14
73671;BME280;61968;48.178;11.566;2023-04-01T05:02:35;94598.44;;;5.91;45.05
73671;BME280;61968;48.178;11.566;2023-04-01T05:05:02;94595.63;;;5.92;45.18
73671;BME280;61968;48.178;11.566;2023-04-01T05:07:29;94596.03;;;6.24;44.17
73671;BME280;61968;48.178;11.566;2023-04-01T05:09:55;94596.03;;;6.13;44.42
73671;BME280;61968;48.178;11.566;2023-04-01T05:12:23;94606.53;;;6.13;44.62
73671;BME280;61968;48.178;11.566;2023-04-01T05:14:50;94593.66;;;5.88;44.80
73671;BME280;61968;48.178;11.566;2023-04-01T05:17:16;94600.16;;;5.85;45.24
73671;BME280;61968;48.178;11.566;2023-04-01T05:19:42;94586.59;;;5.76;45.24
73671;BME280;61968;48.178;11.566;2023-04-01T05:22:09;94591.38;;;6.15;44.20
73671;BME280;61968;48.178;11.566;2023-04-01T05:24:35;94589.53;;;6.15;44.03
73671;BME280;61968;48.178;11.566;2023-04-01T05:27:02;94592.41;;;6.02;44.78
73671;BME280;61968;48.178;11.566;2023-04-01T05:29:29;94594.69;;;5.98;44.60
73671;BME280;61968;48.178;11.566;2023-04-01T05:31:56;94592.84;;;6.22;43.62
73671;BME280;61968;48.178;11.566;2023-04-01T05:34:22;94590.69;;;5.84;43.88
73671;BME280;61968;48.178;11.566;2023-04-01T05:36:49;94592.28;;;5.50;45.18
73671;BME280;61968;48.178;11.566;2023-04-01T05:39:15;94588.50;;;5.57;44.83
73671;BME280;61968;48.178;11.566;2023-04-01T05:41:41;94595.94;;;6.19;43.90
73671;BME280;61968;48.178;11.566;2023-04-01T05:44:10;94583.97;;;5.76;44.26
73671;BME280;61968;48.178;11.566;2023-04-01T05:46:38;94582.13;;;6.24;44.40
73671;BME280;61968;48.178;11.566;2023-04-01T05:49:05;94584.69;;;6.59;43.16
73671;BME280;61968;48.178;11.566;2023-04-01T05:51:31;94585.22;;;7.02;41.81
73671;BME280;61968;48.178;11.566;2023-04-01T05:53:58;94598.09;;;6.22;42.77
73671;BME280;61968;48.178;11.566;2023-04-01T05:56:27;94592.28;;;5.97;43.47
73671;BME280;61968;48.178;11.566;2023-04-01T05:58:54;94596.06;;;5.77;43.92
73671;BME280;61968;48.178;11.566;2023-04-01T06:01:20;94590.00;;;6.24;47.62
73671;BME280;61968;48.178;11.566;2023-04-01T06:03:48;94590.91;;;6.82;44.42
73671;BME280;61968;48.178;11.566;2023-04-01T06:06:19;94594.44;;;7.33;45.12
73671;BME280;61968;48.178;11.566;2023-04-01T06:08:46;94592.06;;;7.48;41.91
73671;BME280;61968;48.178;11.566;2023-04-01T06:11:22;94590.97;;;7.61;46.50
73671;BME280;61968;48.178;11.566;2023-04-01T06:14:00;94593.78;;;7.54;40.84
73671;BME280;61968;48.178;11.566;2023-04-01T06:16:35;94593.28;;;7.40;40.85
73671;BME280;61968;48.178;11.566;2023-04-01T06:19:14;94597.03;;;7.16;41.12
73671;BME280;61968;48.178;11.566;2023-04-01T06:24:40;94590.41;;;6.56;41.54
73671;BME280;61968;48.178;11.566;2023-04-01T06:27:16;94587.84;;;6.09;42.56
73671;BME280;61968;48.178;11.566;2023-04-01T06:29:50;94599.47;;;6.37;42.13
73671;BME280;61968;48.178;11.566;2023-04-01T06:32:31;94588.53;;;5.81;43.43
73671;BME280;61968;48.178;11.566;2023-04-01T06:35:17;94590.13;;;6.17;42.17
73671;BME280;61968;48.178;11.566;2023-04-01T06:38:15;94591.50;;;5.96;42.41
73671;BME280;61968;48.178;11.566;2023-04-01T06:43:42;94587.72;;;6.27;41.86
73671;BME280;61968;48.178;11.566;2023-04-01T06:46:19;94594.13;;;6.08;41.82
73671;BME280;61968;48.178;11.566;2023-04-01T06:49:04;94592.34;;;5.31;43.79
73671;BME280;61968;48.178;11.566;2023-04-01T06:51:39;94595.75;;;5.20;44.16
73671;BME280;61968;48.178;11.566;2023-04-01T06:54:13;94592.84;;;5.10;43.88
73671;BME280;61968;48.178;11.566;2023-04-01T06:56:44;94599.34;;;5.61;43.32
73671;BME280;61968;48.178;11.566;2023-04-01T06:59:15;94599.97;;;5.33;43.70
73671;BME280;61968;48.178;11.566;2023-04-01T07:01:45;94596.63;;;5.79;43.00
73671;BME280;61968;48.178;11.566;2023-04-01T07:04:15;94613.28;;;6.09;42.26
73671;BME280;61968;48.178;11.566;2023-04-01T07:06:47;94605.41;;;5.97;42.13
73671;BME280;61968;48.178;11.566;2023-04-01T07:09:19;94603.69;;;5.91;42.48
73671;BME280;61968;48.178;11.566;2023-04-01T07:11:48;94617.50;;;6.33;41.96
73671;BME280;61968;48.178;11.566;2023-04-01T07:14:20;94609.91;;;6.72;41.19
73671;BME280;61968;48.178;11.566;2023-04-01T07:16:51;94613.94;;;6.51;41.05
73671;BME280;61968;48.178;11.566;2023-04-01T07:19:26;94610.19;;;5.53;43.35
73671;BME280;61968;48.178;11.566;2023-04-01T07:21:58;94603.72;;;5.25;43.70
73671;BME280;61968;48.178;11.566;2023-04-01T07:24:29;94593.41;;;5.42;43.09
73671;BME280;61968;48.178;11.566;2023-04-01T07:26:58;94599.94;;;5.87;42.49
73671;BME280;61968;48.178;11.566;2023-04-01T07:29:26;94604.81;;;5.95;42.35
73671;BME280;61968;48.178;11.566;2023-04-01T07:32:19;94593.53;;;5.71;42.81
73671;BME280;61968;48.178;11.566;2023-04-01T07:34:55;94608.47;;;5.82;42.54
73671;BME280;61968;48.178;11.566;2023-04-01T07:37:29;94606.19;;;5.97;42.07
73671;BME280;61968;48.178;11.566;2023-04-01T07:40:07;94611.69;;;5.96;42.44
73671;BME280;61968;48.178;11.566;2023-04-01T07:42:45;94609.97;;;5.78;42.98
73671;BME280;61968;48.178;11.566;2023-04-01T07:45:19;94610.28;;;6.52;41.67
73671;BME280;61968;48.178;11.566;2023-04-01T07:47:59;94612.34;;;6.62;41.05
73671;BME280;61968;48.178;11.566;2023-04-01T07:50:32;94620.47;;;6.37;41.85
73671;BME280;61968;48.178;11.566;2023-04-01T07:53:10;94612.72;;;6.30;41.42
73671;BME280;61968;48.178;11.566;2023-04-01T07:55:46;94627.06;;;6.91;57.44
73671;BME280;61968;48.178;11.566;2023-04-01T07:58:20;94619.19;;;8.16;55.46
73671;BME280;61968;48.178;11.566;2023-04-01T08:00:59;94626.47;;;8.31;49.76
73671;BME280;61968;48.178;11.566;2023-04-01T08:03:35;94622.47;;;8.45;38.27
73671;BME280;61968;48.178;11.566;2023-04-01T08:06:09;94622.94;;;7.53;39.46
73671;BME280;61968;48.178;11.566;2023-04-01T08:08:49;94618.56;;;6.72;41.04
73671;BME280;61968;48.178;11.566;2023-04-01T08:11:29;94619.81;;;7.10;40.56
73671;BME280;61968;48.178;11.566;2023-04-01T08:14:04;94624.41;;;7.32;39.23
73671;BME280;61968;48.178;11.566;2023-04-01T08:16:39;94629.34;;;7.45;38.83
73671;BME280;61968;48.178;11.566;2023-04-01T08:19:16;94623.84;;;6.61;40.11
73671;BME280;61968;48.178;11.566;2023-04-01T08:21:47;94619.16;;;6.74;40.02
73671;BME280;61968;48.178;11.566;2023-04-01T08:24:25;94617.88;;;6.77;40.02
73671;BME280;61968;48.178;11.566;2023-04-01T08:26:56;94620.09;;;6.97;39.82
73671;BME280;61968;48.178;11.566;2023-04-01T08:29:30;94617.38;;;7.20;39.29
73671;BME280;61968;48.178;11.566;2023-04-01T08:32:06;94609.34;;;6.98;39.92
73671;BME280;61968;48.178;11.566;2023-04-01T08:34:37;94603.94;;;7.05;39.49
73671;BME280;61968;48.178;11.566;2023-04-01T08:37:10;94603.75;;;7.24;39.11
73671;BME280;61968;48.178;11.566;2023-04-01T08:39:41;94576.03;;;6.87;39.10
73671;BME280;61968;48.178;11.566;2023-04-01T08:42:31;94615.00;;;6.15;41.38
73671;BME280;61968;48.178;11.566;2023-04-01T08:48:05;94605.09;;;6.69;39.91
73671;BME280;61968;48.178;11.566;2023-04-01T08:50:52;94592.09;;;6.74;40.14
73671;BME280;61968;48.178;11.566;2023-04-01T08:53:35;94597.19;;;6.81;39.69
73671;BME280;61968;48.178;11.566;2023-04-01T08:56:14;94599.31;;;6.95;39.94
73671;BME280;61968;48.178;11.566;2023-04-01T08:59:08;94595.84;;;6.66;40.16
73671;BME280;61968;48.178;11.566;2023-04-01T09:01:58;94585.38;;;6.95;39.86
73671;BME280;61968;48.178;11.566;2023-04-01T09:04:50;94593.75;;;7.09;38.94
73671;BME280;61968;48.178;11.566;2023-04-01T09:07:34;94603.72;;;6.78;39.91
73671;BME280;61968;48.178;11.566;2023-04-01T09:10:34;94592.00;;;6.57;40.37
73671;BME280;61968;48.178;11.566;2023-04-01T09:13:21;94600.38;;;7.11;38.72
73671;BME280;61968;48.178;11.566;2023-04-01T09:16:16;94597.91;;;6.64;39.68
73671;BME280;61968;48.178;11.566;2023-04-01T09:19:24;94594.91;;;6.32;40.63
73671;BME280;61968;48.178;11.566;2023-04-01T09:22:02;94583.06;;;6.98;39.50
73671;BME280;61968;48.178;11.566;2023-04-01T09:24:58;94580.34;;;6.93;39.82
73671;BME280;61968;48.178;11.566;2023-04-01T09:27:29;94587.38;;;6.76;40.05
73671;BME280;61968;48.178;11.566;2023-04-01T09:30:31;94577.03;;;6.98;39.29
73671;BME280;61968;48.178;11.566;2023-04-01T09:36:05;94574.94;;;7.00;39.14
73671;BME280;61968;48.178;11.566;2023-04-01T09:38:42;94586.41;;;6.94;39.55
73671;BME280;61968;48.178;11.566;2023-04-01T09:41:23;94569.16;;;7.15;39.14
73671;BME280;61968;48.178;11.566;2023-04-01T09:44:00;94581.09;;;6.77;39.47
73671;BME280;61968;48.178;11.566;2023-04-01T09:46:37;94578.63;;;8.34;48.09
73671;BME280;61968;48.178;11.566;2023-04-01T09:49:24;94555.81;;;8.89;38.15
73671;BME280;61968;48.178;11.566;2023-04-01T09:52:07;94557.66;;;8.44;37.65
73671;BME280;61968;48.178;11.566;2023-04-01T09:54:47;94552.72;;;8.09;37.85
73671;BME280;61968;48.178;11.566;2023-04-01T10:00:58;94545.63;;;8.09;38.18
73671;BME280;61968;48.178;11.566;2023-04-01T10:07:01;94559.88;;;8.52;37.63
73671;BME280;61968;48.178;11.566;2023-04-01T10:18:33;94554.84;;;8.29;36.98
73671;BME280;61968;48.178;11.566;2023-04-01T10:21:20;94546.13;;;8.50;37.46
73671;BME280;61968;48.178;11.566;2023-04-01T10:24:00;94547.50;;;8.75;37.11
73671;BME280;61968;48.178;11.566;2023-04-01T10:27:01;94555.72;;;9.06;36.90
73671;BME280;61968;48.178;11.566;2023-04-01T10:35:50;94555.06;;;8.93;36.42
73671;BME280;61968;48.178;11.566;2023-04-01T10:51:08;94566.44;;;8.11;38.45
73671;BME280;61968;48.178;11.566;2023-04-01T10:53:42;94562.13;;;8.66;37.75
73671;BME280;61968;48.178;11.566;2023-04-01T10:56:32;94563.31;;;8.75;37.79
73671;BME280;61968;48.178;11.566;2023-04-01T10:59:15;94557.28;;;8.57;38.46
73671;BME280;61968;48.178;11.566;2023-04-01T11:02:17;94565.34;;;8.68;38.47
73671;BME280;61968;48.178;11.566;2023-04-01T11:05:26;94575.38;;;8.93;38.80
73671;BME280;61968;48.178;11.566;2023-04-01T11:14:41;94579.41;;;8.78;41.08
73671;BME280;61968;48.178;11.566;2023-04-01T11:20:56;94584.78;;;8.45;41.51
73671;BME280;61968;48.178;11.566;2023-04-01T11:26:44;94564.66;;;8.55;40.42
73671;BME280;61968;48.178;11.566;2023-04-01T11:29:54;94582.16;;;8.23;40.89
73671;BME280;61968;48.178;11.566;2023-04-01T11:32:32;94582.84;;;7.79;41.88
73671;BME280;61968;48.178;11.566;2023-04-01T11:35:39;94580.59;;;8.05;42.22
73671;BME280;61968;48.178;11.566;2023-04-01T11:38:30;94598.78;;;7.89;42.71
73671;BME280;61968;48.178;11.566;2023-04-01T11:41:13;94595.25;;;6.76;44.91
73671;BME280;61968;48.178;11.566;2023-04-01T11:43:55;94594.25;;;7.51;44.48
73671;BME280;61968;48.178;11.566;2023-04-01T11:46:37;94588.22;;;7.22;43.91
73671;BME280;61968;48.178;11.566;2023-04-01T11:49:23;94609.03;;;6.95;45.66
73671;BME280;61968;48.178;11.566;2023-04-01T11:52:05;94623.00;;;6.84;46.55
73671;BME280;61968;48.178;11.566;2023-04-01T11:54:50;94624.66;;;7.02;46.08
73671;BME280;61968;48.178;11.566;2023-04-01T11:57:51;94626.28;;;7.19;45.48
73671;BME280;61968;48.178;11.566;2023-04-01T12:00:29;94628.44;;;7.51;45.15
73671;BME280;61968;48.178;11.566;2023-04-01T12:03:15;94620.53;;;7.51;44.99
73671;BME280;61968;48.178;11.566;2023-04-01T12:05:49;94630.69;;;7.59;45.44
73671;BME280;61968;48.178;11.566;2023-04-01T12:08:29;94627.56;;;7.34;46.20
73671;BME280;61968;48.178;11.566;2023-04-01T12:11:00;94636.97;;;7.30;47.04
73671;BME280;61968;48.178;11.566;2023-04-01T12:13:40;94628.31;;;7.75;45.37
73671;BME280;61968;48.178;11.566;2023-04-01T12:16:25;94620.31;;;7.53;45.41
73671;BME280;61968;48.178;11.566;2023-04-01T12:19:03;94620.63;;;7.73;45.15
73671;BME280;61968;48.178;11.566;2023-04-01T12:21:37;94626.78;;;7.96;44.71
73671;BME280;61968;48.178;11.566;2023-04-01T12:24:32;94625.53;;;7.36;45.72
73671;BME280;61968;48.178;11.566;2023-04-01T12:30:17;94614.34;;;7.57;45.60
73671;BME280;61968;48.178;11.566;2023-04-01T12:32:56;94618.75;;;7.40;45.18
73671;BME280;61968;48.178;11.566;2023-04-01T12:35:31;94615.84;;;7.53;44.79
73671;BME280;61968;48.178;11.566;2023-04-01T12:38:13;94607.84;;;7.03;46.41
73671;BME280;61968;48.178;11.566;2023-04-01T12:41:08;94619.16;;;7.32;44.90
73671;BME280;61968;48.178;11.566;2023-04-01T12:44:03;94614.22;;;7.07;46.18
73671;BME280;61968;48.178;11.566;2023-04-01T12:46:46;94619.38;;;7.30;46.01
73671;BME280;61968;48.178;11.566;2023-04-01T12:49:39;94627.28;;;7.47;45.43
73671;BME280;61968;48.178;11.566;2023-04-01T12:52:11;94624.28;;;7.55;45.38
73671;BME280;61968;48.178;11.566;2023-04-01T12:58:13;94617.13;;;6.93;46.06
73671;BME280;61968;48.178;11.566;2023-04-01T13:03:53;94617.25;;;7.44;44.61
73671;BME280;61968;48.178;11.566;2023-04-01T13:06:43;94622.94;;;7.24;45.17
73671;BME280;61968;48.178;11.566;2023-04-01T13:09:24;94628.31;;;7.29;45.31
73671;BME280;61968;48.178;11.566;2023-04-01T13:12:08;94621.50;;;7.16;45.31
73671;BME280;61968;48.178;11.566;2023-04-01T13:15:07;94635.13;;;7.13;44.70
73671;BME280;61968;48.178;11.566;2023-04-01T13:17:45;94628.06;;;7.31;44.38
73671;BME280;61968;48.178;11.566;2023-04-01T13:20:23;94627.41;;;7.52;44.74
73671;BME280;61968;48.178;11.566;2023-04-01T13:23:01;94629.56;;;7.72;44.27
73671;BME280;61968;48.178;11.566;2023-04-01T13:25:39;94644.66;;;7.48;44.99
73671;BME280;61968;48.178;11.566;2023-04-01T13:28:13;94637.16;;;7.40;44.92
73671;BME280;61968;48.178;11.566;2023-04-01T13:30:48;94633.53;;;7.58;44.76
73671;BME280;61968;48.178;11.566;2023-04-01T13:33:26;94642.88;;;7.65;45.21
73671;BME280;61968;48.178;11.566;2023-04-01T13:36:05;94637.31;;;7.62;44.98
73671;BME280;61968;48.178;11.566;2023-04-01T13:38:53;94640.72;;;7.62;45.08
73671;BME280;61968;48.178;11.566;2023-04-01T13:41:41;94643.28;;;7.57;44.99
73671;BME280;61968;48.178;11.566;2023-04-01T13:44:12;94655.19;;;7.77;44.97
73671;BME280;61968;48.178;11.566;2023-04-01T13:46:54;94651.34;;;7.68;45.51
73671;BME280;61968;48.178;11.566;2023-04-01T13:49:53;94647.81;;;7.33;46.23
73671;BME280;61968;48.178;11.566;2023-04-01T13:52:47;94648.06;;;7.03;47.12
73671;BME280;61968;48.178;11.566;2023-04-01T13:55:39;94633.34;;;7.19;46.03
73671;BME280;61968;48.178;11.566;2023-04-01T13:58:33;94629.50;;;6.81;45.82
73671;BME280;61968;48.178;11.566;2023-04-01T14:01:06;94640.66;;;6.48;46.54
73671;BME280;61968;48.178;11.566;2023-04-01T14:03:58;94656.63;;;6.58;46.95
73671;BME280;61968;48.178;11.566;2023-04-01T14:06:34;94641.44;;;7.29;45.80
73671;BME280;61968;48.178;11.566;2023-04-01T14:09:35;94647.88;;;7.21;46.00
73671;BME280;61968;48.178;11.566;2023-04-01T14:12:13;94624.88;;;6.71;47.07
73671;BME280;61968;48.178;11.566;2023-04-01T14:14:57;94643.09;;;6.90;46.89
73671;BME280;61968;48.178;11.566;2023-04-01T14:17:43;94638.56;;;7.31;46.27
73671;BME280;61968;48.178;11.566;2023-04-01T14:20:26;94652.13;;;7.23;46.21
73671;BME280;61968;48.178;11.566;2023-04-01T14:23:25;94639.91;;;7.16;46.19
73671;BME280;61968;48.178;11.566;2023-04-01T14:26:28;94637.78;;;7.02;46.13
73671;BME280;61968;48.178;11.566;2023-04-01T14:29:06;94636.94;;;6.84;46.40
73671;BME280;61968;48.178;11.566;2023-04-01T14:31:50;94636.47;;;6.35;47.44
73671;BME280;61968;48.178;11.566;2023-04-01T14:34:29;94647.28;;;6.62;46.93
73671;BME280;61968;48.178;11.566;2023-04-01T14:37:14;94650.78;;;7.08;45.59
73671;BME280;61968;48.178;11.566;2023-04-01T14:39:57;94638.56;;;7.31;45.31
73671;BME280;61968;48.178;11.566;2023-04-01T14:42:41;94657.03;;;7.48;45.23
73671;BME280;61968;48.178;11.566;2023-04-01T14:45:31;94638.34;;;7.49;45.64
73671;BME280;61968;48.178;11.566;2023-04-01T14:48:21;94642.81;;;7.03;46.54
73671;BME280;61968;48.178;11.566;2023-04-01T14:50:51;94640.81;;;7.39;45.58
73671;BME280;61968;48.178;11.566;2023-04-01T14:53:27;94646.72;;;7.46;45.18
73671;BME280;61968;48.178;11.566;2023-04-01T14:55:55;94647.59;;;7.35;45.65